createdAt,value
2022-09-02T00:16:59.294Z,0
2022-09-02T00:36:13.494Z,0
2022-09-02T00:45:50.135Z,0
2022-09-02T00:55:26.790Z,0
2022-09-02T01:05:04.812Z,0
2022-09-02T01:14:39.582Z,0
2022-09-02T01:24:16.498Z,0
2022-09-02T01:33:53.514Z,0
2022-09-02T01:53:06.984Z,0
2022-09-02T02:02:44.007Z,0
2022-09-02T02:12:20.987Z,0
2022-09-02T02:21:57.762Z,0
2022-09-02T02:31:34.780Z,0
2022-09-02T02:41:11.680Z,0
2022-09-02T02:50:48.634Z,0.83
2022-09-02T03:00:25.565Z,0
2022-09-02T03:10:02.604Z,0
2022-09-02T03:19:39.317Z,0
2022-09-02T03:29:16.605Z,0
2022-09-02T03:38:53.577Z,0
2022-09-02T03:48:30.736Z,0
2022-09-02T03:58:08.741Z,0.83
2022-09-02T04:07:47.073Z,3.33
2022-09-02T04:27:03.437Z,50.83
2022-09-02T04:36:35.968Z,110.83
2022-09-02T04:46:12.805Z,188.33
2022-09-02T04:55:49.644Z,270.83
2022-09-02T05:05:26.816Z,349.17
2022-09-02T05:15:04.145Z,419.17
2022-09-02T05:34:19.028Z,527.5
2022-09-02T05:43:56.885Z,575.83
2022-09-02T05:53:34.288Z,616.67
2022-09-02T06:22:26.710Z,729.17
2022-09-02T06:32:04.334Z,771.67
2022-09-02T06:51:19.523Z,853.33
2022-09-02T07:00:57.592Z,906.67
2022-09-02T07:10:35.301Z,949.17
2022-09-02T07:20:13.285Z,980
2022-09-02T07:29:50.726Z,1015.83
2022-09-02T07:39:28.727Z,1043.33
2022-09-02T07:58:44.711Z,1119.17
2022-09-02T08:08:22.612Z,1152.5
2022-09-02T08:18:00.991Z,1204.17
2022-09-02T08:27:38.874Z,1247.5
2022-09-02T08:37:16.763Z,1297.5
2022-09-02T08:46:55.378Z,1364.17
2022-09-02T08:56:33.899Z,1481.67
2022-09-02T09:06:12.856Z,1590
2022-09-02T09:25:30.419Z,1675.83
2022-09-02T09:35:08.334Z,1785
2022-09-02T09:44:47.154Z,2529.17
2022-09-02T09:54:25.333Z,3724.17
2022-09-02T10:13:52.954Z,30660
2022-09-02T10:23:48.040Z,29775.83
2022-09-02T10:33:38.761Z,35719.16
2022-09-02T10:53:01.950Z,4176.67
2022-09-02T11:02:29.198Z,40695
2022-09-02T11:12:20.306Z,39466.66
2022-09-02T11:21:50.248Z,4207.5
2022-09-02T11:31:10.518Z,3814.17
2022-09-02T11:41:31.947Z,4869.17
2022-09-02T11:50:19.047Z,2923.33
2022-09-02T11:59:54.533Z,5086.67
2022-09-02T12:09:42.155Z,16007.5
2022-09-02T12:19:46.124Z,35607.5
2022-09-02T12:29:25.896Z,14383.33
2022-09-02T12:38:47.216Z,6024.17
2022-09-02T12:48:17.561Z,4476.67
2022-09-02T13:07:30.103Z,5208.33
2022-09-02T13:26:49.585Z,5464.17
2022-09-02T13:36:23.455Z,5978.33
2022-09-02T13:46:01.611Z,6741.67
2022-09-02T13:55:45.117Z,8984.17
2022-09-02T14:05:23.585Z,5523.33
2022-09-02T14:14:58.214Z,5027.5
2022-09-02T14:24:33.764Z,4450
2022-09-02T14:34:10.093Z,16415
2022-09-02T14:44:10.275Z,6190
2022-09-02T14:53:42.983Z,4985.83
2022-09-02T15:03:15.705Z,3849.17
2022-09-02T15:12:51.025Z,2795
2022-09-02T15:22:25.915Z,2589.17
2022-09-02T15:41:39.580Z,3139.17
2022-09-02T15:51:17.345Z,3945
2022-09-02T16:00:54.690Z,2399.17
2022-09-02T16:10:30.772Z,2211.67
2022-09-02T16:29:45.509Z,1618.33
2022-09-02T16:39:22.150Z,1186.67
2022-09-02T16:48:58.153Z,1023.33
2022-09-02T16:58:34.519Z,820
2022-09-02T17:08:10.565Z,730
2022-09-02T17:17:47.572Z,432.5
2022-09-02T17:27:23.967Z,283.33
2022-09-02T17:37:00.678Z,160
2022-09-02T17:46:37.499Z,83.33
2022-09-02T18:05:50.359Z,14.17
2022-09-02T18:15:27.212Z,4.17
2022-09-02T18:25:03.902Z,0.83
2022-09-02T18:44:18.002Z,0
2022-09-02T19:03:32.338Z,0
2022-09-02T19:32:23.627Z,0
2022-09-02T19:42:00.780Z,0
2022-09-02T19:51:37.930Z,0
2022-09-02T20:01:15.116Z,0
2022-09-02T20:10:52.313Z,0
2022-09-02T20:20:29.672Z,0
2022-09-02T20:30:06.473Z,0
2022-09-02T20:39:43.767Z,0
2022-09-02T20:49:20.922Z,0
2022-09-02T20:58:58.290Z,0
2022-09-02T21:08:35.690Z,0
2022-09-02T21:37:27.482Z,0
2022-09-02T21:47:04.570Z,0
2022-09-02T21:56:41.876Z,0
2022-09-02T22:06:18.725Z,0
2022-09-02T22:15:55.652Z,0
2022-09-02T22:25:32.710Z,0
2022-09-02T22:35:09.295Z,0
2022-09-02T22:44:45.922Z,0
2022-09-02T22:54:22.662Z,0
2022-09-02T23:03:59.413Z,0
2022-09-02T23:13:35.881Z,0
2022-09-02T23:23:12.536Z,0
2022-09-02T23:32:49.334Z,0
2022-09-02T23:42:26.097Z,0
2022-09-02T23:52:02.883Z,0
